Terminal Aerodrome Forecast
Issued by NWS

Home | Current Version | Previous Version | Text Only | Print | Product List | Glossary On
Versions: 1 2 3 4 5 6 7 8 9 10 11 12 13 14 15
000
FTUS43 KGLD 270523 CCA
TAFMCK
TAF COR
KMCK 270523Z 2706/2806 VRB06KT P6SM VCTS SCT050CB BKN250
      TEMPO 2706/2709 01024G33KT 5SM -TSRA BKN050CB
     FM270900 12009KT P6SM BKN250
     FM271300 18007KT P6SM FEW200
     FM272000 08009KT P6SM VCTS SCT050CB BKN200
     FM280500 05006KT P6SM SCT200=

USA.gov is the U.S. government's official web portal to all federal, state and local government web resources and services.